sensor_id;sensor_type;location;lat;lon;timestamp;temperature;humidity
85696;DHT22;76240;50.902;3.892;2024-02-16T00:01:01;13.80;75.10
85696;DHT22;76240;50.902;3.892;2024-02-16T00:03:28;13.70;75.40
85696;DHT22;76240;50.902;3.892;2024-02-16T00:05:54;13.80;75.50
85696;DHT22;76240;50.902;3.892;2024-02-16T00:08:20;13.80;75.40
85696;DHT22;76240;50.902;3.892;2024-02-16T00:10:47;13.80;75.30
85696;DHT22;76240;50.902;3.892;2024-02-16T00:13:13;13.80;75.20
85696;DHT22;76240;50.902;3.892;2024-02-16T00:15:39;13.80;75.30
85696;DHT22;76240;50.902;3.892;2024-02-16T00:18:06;13.80;75.20
85696;DHT22;76240;50.902;3.892;2024-02-16T00:20:31;13.80;75.20
85696;DHT22;76240;50.902;3.892;2024-02-16T00:22:58;13.80;75.20
85696;DHT22;76240;50.902;3.892;2024-02-16T00:25:24;13.70;75.50
85696;DHT22;76240;50.902;3.892;2024-02-16T00:27:50;13.80;75.80
85696;DHT22;76240;50.902;3.892;2024-02-16T00:30:19;13.80;75.40
85696;DHT22;76240;50.902;3.892;2024-02-16T00:32:45;13.70;75.70
85696;DHT22;76240;50.902;3.892;2024-02-16T00:35:11;13.60;75.70
85696;DHT22;76240;50.902;3.892;2024-02-16T00:37:37;13.60;75.90
85696;DHT22;76240;50.902;3.892;2024-02-16T00:40:04;13.70;76.00
85696;DHT22;76240;50.902;3.892;2024-02-16T00:42:32;13.60;76.30
85696;DHT22;76240;50.902;3.892;2024-02-16T00:44:58;13.50;76.80
85696;DHT22;76240;50.902;3.892;2024-02-16T00:47:26;13.50;76.90
85696;DHT22;76240;50.902;3.892;2024-02-16T00:49:55;13.50;76.80
85696;DHT22;76240;50.902;3.892;2024-02-16T00:52:22;13.50;77.00
85696;DHT22;76240;50.902;3.892;2024-02-16T00:54:48;13.50;76.70
85696;DHT22;76240;50.902;3.892;2024-02-16T00:57:15;13.50;76.40
85696;DHT22;76240;50.902;3.892;2024-02-16T00:59:42;13.50;76.90
85696;DHT22;76240;50.902;3.892;2024-02-16T01:02:08;13.40;77.10
85696;DHT22;76240;50.902;3.892;2024-02-16T01:04:36;13.50;77.00
85696;DHT22;76240;50.902;3.892;2024-02-16T01:07:02;13.50;76.80
85696;DHT22;76240;50.902;3.892;2024-02-16T01:09:28;13.50;76.80
85696;DHT22;76240;50.902;3.892;2024-02-16T01:11:54;13.50;76.70
85696;DHT22;76240;50.902;3.892;2024-02-16T01:14:20;13.50;76.60
85696;DHT22;76240;50.902;3.892;2024-02-16T01:16:46;13.50;76.80
85696;DHT22;76240;50.902;3.892;2024-02-16T01:19:12;13.50;77.20
85696;DHT22;76240;50.902;3.892;2024-02-16T01:21:38;13.50;76.90
85696;DHT22;76240;50.902;3.892;2024-02-16T01:24:08;13.60;76.60
85696;DHT22;76240;50.902;3.892;2024-02-16T01:26:34;13.60;76.30
85696;DHT22;76240;50.902;3.892;2024-02-16T01:29:00;13.60;76.80
85696;DHT22;76240;50.902;3.892;2024-02-16T01:31:27;13.60;76.40
85696;DHT22;76240;50.902;3.892;2024-02-16T01:33:53;13.60;76.50
85696;DHT22;76240;50.902;3.892;2024-02-16T01:36:19;13.60;76.40
85696;DHT22;76240;50.902;3.892;2024-02-16T01:38:45;13.60;76.50
85696;DHT22;76240;50.902;3.892;2024-02-16T01:41:11;13.60;76.50
85696;DHT22;76240;50.902;3.892;2024-02-16T01:43:38;13.50;76.80
85696;DHT22;76240;50.902;3.892;2024-02-16T01:46:04;13.50;77.20
85696;DHT22;76240;50.902;3.892;2024-02-16T01:48:30;13.50;77.20
85696;DHT22;76240;50.902;3.892;2024-02-16T01:50:57;13.50;77.10
85696;DHT22;76240;50.902;3.892;2024-02-16T01:53:24;13.50;76.80
85696;DHT22;76240;50.902;3.892;2024-02-16T01:55:50;13.60;76.90
85696;DHT22;76240;50.902;3.892;2024-02-16T01:58:16;13.50;77.00
85696;DHT22;76240;50.902;3.892;2024-02-16T02:00:42;13.50;77.10
85696;DHT22;76240;50.902;3.892;2024-02-16T02:03:08;13.50;77.30
85696;DHT22;76240;50.902;3.892;2024-02-16T02:05:34;13.40;77.70
85696;DHT22;76240;50.902;3.892;2024-02-16T02:08:09;13.40;78.20
85696;DHT22;76240;50.902;3.892;2024-02-16T02:10:35;13.40;77.90
85696;DHT22;76240;50.902;3.892;2024-02-16T02:13:01;13.40;78.00
85696;DHT22;76240;50.902;3.892;2024-02-16T02:15:28;13.50;77.80
85696;DHT22;76240;50.902;3.892;2024-02-16T02:17:53;13.40;77.80
85696;DHT22;76240;50.902;3.892;2024-02-16T02:20:19;13.40;78.10
85696;DHT22;76240;50.902;3.892;2024-02-16T02:22:45;13.40;78.20
85696;DHT22;76240;50.902;3.892;2024-02-16T02:25:11;13.40;78.30
85696;DHT22;76240;50.902;3.892;2024-02-16T02:27:38;13.50;77.90
85696;DHT22;76240;50.902;3.892;2024-02-16T02:30:04;13.60;77.80
85696;DHT22;76240;50.902;3.892;2024-02-16T02:32:31;13.60;77.90
85696;DHT22;76240;50.902;3.892;2024-02-16T02:34:56;13.50;77.90
85696;DHT22;76240;50.902;3.892;2024-02-16T02:37:22;13.40;78.70
85696;DHT22;76240;50.902;3.892;2024-02-16T02:39:48;13.40;78.90
85696;DHT22;76240;50.902;3.892;2024-02-16T02:42:14;13.40;78.60
85696;DHT22;76240;50.902;3.892;2024-02-16T02:44:40;13.50;78.60
85696;DHT22;76240;50.902;3.892;2024-02-16T02:47:06;13.50;78.50
85696;DHT22;76240;50.902;3.892;2024-02-16T02:49:32;13.50;78.20
85696;DHT22;76240;50.902;3.892;2024-02-16T02:52:00;13.50;78.30
85696;DHT22;76240;50.902;3.892;2024-02-16T02:54:27;13.50;78.40
85696;DHT22;76240;50.902;3.892;2024-02-16T02:56:53;13.50;78.50
85696;DHT22;76240;50.902;3.892;2024-02-16T02:59:18;13.40;78.90
85696;DHT22;76240;50.902;3.892;2024-02-16T03:01:44;13.40;79.00
85696;DHT22;76240;50.902;3.892;2024-02-16T03:04:11;13.50;78.80
85696;DHT22;76240;50.902;3.892;2024-02-16T03:06:37;13.50;79.00
85696;DHT22;76240;50.902;3.892;2024-02-16T03:09:02;13.50;78.90
85696;DHT22;76240;50.902;3.892;2024-02-16T03:11:28;13.50;79.00
85696;DHT22;76240;50.902;3.892;2024-02-16T03:13:54;13.50;79.00
85696;DHT22;76240;50.902;3.892;2024-02-16T03:16:20;13.60;78.70
85696;DHT22;76240;50.902;3.892;2024-02-16T03:18:46;13.60;78.70
85696;DHT22;76240;50.902;3.892;2024-02-16T03:21:15;13.60;78.60
85696;DHT22;76240;50.902;3.892;2024-02-16T03:23:43;13.60;79.00
85696;DHT22;76240;50.902;3.892;2024-02-16T03:26:16;13.50;79.50
85696;DHT22;76240;50.902;3.892;2024-02-16T03:28:46;13.50;79.70
85696;DHT22;76240;50.902;3.892;2024-02-16T03:31:17;13.60;79.40
85696;DHT22;76240;50.902;3.892;2024-02-16T03:33:43;13.70;79.00
85696;DHT22;76240;50.902;3.892;2024-02-16T03:36:09;13.70;79.00
85696;DHT22;76240;50.902;3.892;2024-02-16T03:38:38;13.60;79.20
85696;DHT22;76240;50.902;3.892;2024-02-16T03:41:03;13.60;79.20
85696;DHT22;76240;50.902;3.892;2024-02-16T03:43:30;13.60;79.40
85696;DHT22;76240;50.902;3.892;2024-02-16T03:45:55;13.70;79.60
85696;DHT22;76240;50.902;3.892;2024-02-16T03:48:21;13.70;79.40
85696;DHT22;76240;50.902;3.892;2024-02-16T03:50:47;13.70;79.30
85696;DHT22;76240;50.902;3.892;2024-02-16T03:53:13;13.70;79.20
85696;DHT22;76240;50.902;3.892;2024-02-16T03:55:39;13.80;79.10
85696;DHT22;76240;50.902;3.892;2024-02-16T03:58:05;13.80;79.00
85696;DHT22;76240;50.902;3.892;2024-02-16T04:00:30;13.60;79.70
85696;DHT22;76240;50.902;3.892;2024-02-16T04:02:57;13.60;80.10
85696;DHT22;76240;50.902;3.892;2024-02-16T04:05:24;13.60;79.80
85696;DHT22;76240;50.902;3.892;2024-02-16T04:07:56;13.60;79.90
85696;DHT22;76240;50.902;3.892;2024-02-16T04:10:27;13.60;80.20
85696;DHT22;76240;50.902;3.892;2024-02-16T04:12:54;13.70;80.20
85696;DHT22;76240;50.902;3.892;2024-02-16T04:15:22;13.80;79.70
85696;DHT22;76240;50.902;3.892;2024-02-16T04:17:48;13.80;79.90
85696;DHT22;76240;50.902;3.892;2024-02-16T04:20:15;13.80;79.50
85696;DHT22;76240;50.902;3.892;2024-02-16T04:22:42;13.70;79.90
85696;DHT22;76240;50.902;3.892;2024-02-16T04:25:08;13.70;80.10
85696;DHT22;76240;50.902;3.892;2024-02-16T04:27:35;13.70;80.10
85696;DHT22;76240;50.902;3.892;2024-02-16T04:30:02;13.70;80.40
85696;DHT22;76240;50.902;3.892;2024-02-16T04:32:28;13.70;80.30
85696;DHT22;76240;50.902;3.892;2024-02-16T04:34:54;13.90;80.00
85696;DHT22;76240;50.902;3.892;2024-02-16T04:37:22;13.80;79.90
85696;DHT22;76240;50.902;3.892;2024-02-16T04:39:49;13.80;80.10
85696;DHT22;76240;50.902;3.892;2024-02-16T04:42:15;13.80;79.90
85696;DHT22;76240;50.902;3.892;2024-02-16T04:44:44;13.80;80.10
85696;DHT22;76240;50.902;3.892;2024-02-16T04:47:10;13.80;80.10
85696;DHT22;76240;50.902;3.892;2024-02-16T04:49:37;13.70;80.30
85696;DHT22;76240;50.902;3.892;2024-02-16T04:52:03;13.70;80.40
85696;DHT22;76240;50.902;3.892;2024-02-16T04:54:30;13.80;80.40
85696;DHT22;76240;50.902;3.892;2024-02-16T04:56:56;13.80;80.40
85696;DHT22;76240;50.902;3.892;2024-02-16T04:59:22;13.70;80.70
85696;DHT22;76240;50.902;3.892;2024-02-16T05:01:47;13.70;80.80
85696;DHT22;76240;50.902;3.892;2024-02-16T05:04:14;13.70;81.10
85696;DHT22;76240;50.902;3.892;2024-02-16T05:06:43;13.70;81.20
85696;DHT22;76240;50.902;3.892;2024-02-16T05:09:12;13.70;81.10
85696;DHT22;76240;50.902;3.892;2024-02-16T05:11:37;13.70;81.20
85696;DHT22;76240;50.902;3.892;2024-02-16T05:14:03;13.90;80.90
85696;DHT22;76240;50.902;3.892;2024-02-16T05:16:29;13.90;80.90
85696;DHT22;76240;50.902;3.892;2024-02-16T05:18:55;13.80;81.30
85696;DHT22;76240;50.902;3.892;2024-02-16T05:21:24;13.70;81.80
85696;DHT22;76240;50.902;3.892;2024-02-16T05:23:50;13.80;81.70
85696;DHT22;76240;50.902;3.892;2024-02-16T05:26:16;13.80;81.80
85696;DHT22;76240;50.902;3.892;2024-02-16T05:28:42;13.90;81.70
85696;DHT22;76240;50.902;3.892;2024-02-16T05:31:16;13.90;81.60
85696;DHT22;76240;50.902;3.892;2024-02-16T05:33:48;13.80;81.80
85696;DHT22;76240;50.902;3.892;2024-02-16T05:36:21;13.80;82.10
85696;DHT22;76240;50.902;3.892;2024-02-16T05:38:50;13.80;82.00
85696;DHT22;76240;50.902;3.892;2024-02-16T05:41:17;13.90;82.10
85696;DHT22;76240;50.902;3.892;2024-02-16T05:43:44;13.90;81.80
85696;DHT22;76240;50.902;3.892;2024-02-16T05:46:17;13.90;81.80
85696;DHT22;76240;50.902;3.892;2024-02-16T05:48:45;13.90;81.80
85696;DHT22;76240;50.902;3.892;2024-02-16T05:51:12;13.90;81.90
85696;DHT22;76240;50.902;3.892;2024-02-16T05:53:39;13.90;82.10
85696;DHT22;76240;50.902;3.892;2024-02-16T05:56:07;13.90;82.20
85696;DHT22;76240;50.902;3.892;2024-02-16T05:58:32;13.90;82.10
85696;DHT22;76240;50.902;3.892;2024-02-16T06:00:59;13.90;82.10
85696;DHT22;76240;50.902;3.892;2024-02-16T06:03:25;14.00;82.00
85696;DHT22;76240;50.902;3.892;2024-02-16T06:05:52;14.10;81.60
85696;DHT22;76240;50.902;3.892;2024-02-16T06:08:19;14.10;81.30
85696;DHT22;76240;50.902;3.892;2024-02-16T06:10:45;14.10;81.60
85696;DHT22;76240;50.902;3.892;2024-02-16T06:13:18;14.00;81.90
85696;DHT22;76240;50.902;3.892;2024-02-16T06:15:45;13.90;82.10
85696;DHT22;76240;50.902;3.892;2024-02-16T06:18:10;13.90;82.40
85696;DHT22;76240;50.902;3.892;2024-02-16T06:20:36;13.90;82.50
85696;DHT22;76240;50.902;3.892;2024-02-16T06:23:02;14.00;82.40
85696;DHT22;76240;50.902;3.892;2024-02-16T06:25:28;14.00;82.20
85696;DHT22;76240;50.902;3.892;2024-02-16T06:27:54;14.00;82.20
85696;DHT22;76240;50.902;3.892;2024-02-16T06:30:20;14.00;82.60
85696;DHT22;76240;50.902;3.892;2024-02-16T06:32:46;14.10;82.70
85696;DHT22;76240;50.902;3.892;2024-02-16T06:35:12;14.10;82.70
85696;DHT22;76240;50.902;3.892;2024-02-16T06:37:37;14.10;83.40
85696;DHT22;76240;50.902;3.892;2024-02-16T06:40:05;14.10;83.50
85696;DHT22;76240;50.902;3.892;2024-02-16T06:42:31;14.10;85.20
85696;DHT22;76240;50.902;3.892;2024-02-16T06:44:59;14.00;84.80
85696;DHT22;76240;50.902;3.892;2024-02-16T06:47:25;14.00;84.90
85696;DHT22;76240;50.902;3.892;2024-02-16T06:49:51;13.90;85.00
85696;DHT22;76240;50.902;3.892;2024-02-16T06:52:18;14.00;84.90
85696;DHT22;76240;50.902;3.892;2024-02-16T06:54:44;13.90;85.20
85696;DHT22;76240;50.902;3.892;2024-02-16T06:57:10;13.90;85.20
85696;DHT22;76240;50.902;3.892;2024-02-16T06:59:35;14.00;84.90
85696;DHT22;76240;50.902;3.892;2024-02-16T07:02:01;14.00;85.10
85696;DHT22;76240;50.902;3.892;2024-02-16T07:04:27;13.90;85.40
85696;DHT22;76240;50.902;3.892;2024-02-16T07:06:54;13.90;85.50
85696;DHT22;76240;50.902;3.892;2024-02-16T07:09:19;13.90;85.50
85696;DHT22;76240;50.902;3.892;2024-02-16T07:11:47;14.00;85.50
85696;DHT22;76240;50.902;3.892;2024-02-16T07:14:16;14.00;85.50
85696;DHT22;76240;50.902;3.892;2024-02-16T07:16:41;14.00;85.60
85696;DHT22;76240;50.902;3.892;2024-02-16T07:19:11;13.90;86.20
85696;DHT22;76240;50.902;3.892;2024-02-16T07:21:38;13.90;87.10
85696;DHT22;76240;50.902;3.892;2024-02-16T07:24:04;13.90;87.00
85696;DHT22;76240;50.902;3.892;2024-02-16T07:26:30;13.80;87.40
85696;DHT22;76240;50.902;3.892;2024-02-16T07:28:56;13.80;87.50
85696;DHT22;76240;50.902;3.892;2024-02-16T07:31:22;13.80;87.40
85696;DHT22;76240;50.902;3.892;2024-02-16T07:33:48;13.80;87.10
85696;DHT22;76240;50.902;3.892;2024-02-16T07:36:14;13.70;87.50
85696;DHT22;76240;50.902;3.892;2024-02-16T07:38:40;13.70;87.70
85696;DHT22;76240;50.902;3.892;2024-02-16T07:41:06;13.80;88.00
85696;DHT22;76240;50.902;3.892;2024-02-16T07:43:32;13.80;87.20
85696;DHT22;76240;50.902;3.892;2024-02-16T07:45:58;13.90;87.40
85696;DHT22;76240;50.902;3.892;2024-02-16T07:48:24;13.90;87.20
85696;DHT22;76240;50.902;3.892;2024-02-16T07:50:50;13.90;87.30
85696;DHT22;76240;50.902;3.892;2024-02-16T07:53:16;14.00;87.00
85696;DHT22;76240;50.902;3.892;2024-02-16T07:55:42;14.10;86.60
85696;DHT22;76240;50.902;3.892;2024-02-16T07:58:08;14.10;86.70
85696;DHT22;76240;50.902;3.892;2024-02-16T08:00:34;14.00;87.10
85696;DHT22;76240;50.902;3.892;2024-02-16T08:03:01;14.00;87.20
85696;DHT22;76240;50.902;3.892;2024-02-16T08:05:28;14.00;87.70
85696;DHT22;76240;50.902;3.892;2024-02-16T08:07:54;14.00;87.70
85696;DHT22;76240;50.902;3.892;2024-02-16T08:10:20;14.10;87.20
85696;DHT22;76240;50.902;3.892;2024-02-16T08:12:50;14.20;86.70
85696;DHT22;76240;50.902;3.892;2024-02-16T08:15:16;14.30;86.80
85696;DHT22;76240;50.902;3.892;2024-02-16T08:17:48;14.20;86.70
85696;DHT22;76240;50.902;3.892;2024-02-16T08:20:15;14.20;86.70
85696;DHT22;76240;50.902;3.892;2024-02-16T08:22:41;14.40;86.40
85696;DHT22;76240;50.902;3.892;2024-02-16T08:25:08;14.40;86.10
85696;DHT22;76240;50.902;3.892;2024-02-16T08:27:34;14.40;86.40
85696;DHT22;76240;50.902;3.892;2024-02-16T08:29:59;14.40;86.30
85696;DHT22;76240;50.902;3.892;2024-02-16T08:32:27;14.40;86.40
85696;DHT22;76240;50.902;3.892;2024-02-16T08:34:53;14.40;86.40
85696;DHT22;76240;50.902;3.892;2024-02-16T08:37:21;14.40;86.60
85696;DHT22;76240;50.902;3.892;2024-02-16T08:39:47;14.50;86.00
85696;DHT22;76240;50.902;3.892;2024-02-16T08:42:13;14.60;85.80
85696;DHT22;76240;50.902;3.892;2024-02-16T08:44:40;14.60;85.70
85696;DHT22;76240;50.902;3.892;2024-02-16T08:47:07;14.50;86.00
85696;DHT22;76240;50.902;3.892;2024-02-16T08:49:34;14.50;86.00
85696;DHT22;76240;50.902;3.892;2024-02-16T08:52:00;14.40;86.30
85696;DHT22;76240;50.902;3.892;2024-02-16T08:54:26;14.50;86.10
85696;DHT22;76240;50.902;3.892;2024-02-16T08:56:55;14.50;86.20
85696;DHT22;76240;50.902;3.892;2024-02-16T08:59:21;14.60;86.10
85696;DHT22;76240;50.902;3.892;2024-02-16T09:01:47;14.50;86.00
85696;DHT22;76240;50.902;3.892;2024-02-16T09:04:13;14.40;86.40
85696;DHT22;76240;50.902;3.892;2024-02-16T09:06:39;14.40;86.60
85696;DHT22;76240;50.902;3.892;2024-02-16T09:09:05;14.50;86.50
85696;DHT22;76240;50.902;3.892;2024-02-16T09:11:33;14.50;85.90
85696;DHT22;76240;50.902;3.892;2024-02-16T09:13:59;14.70;85.80
85696;DHT22;76240;50.902;3.892;2024-02-16T09:16:26;14.70;85.80
85696;DHT22;76240;50.902;3.892;2024-02-16T09:18:52;14.60;87.50
85696;DHT22;76240;50.902;3.892;2024-02-16T09:21:18;14.30;88.50
85696;DHT22;76240;50.902;3.892;2024-02-16T09:23:45;14.30;89.40
85696;DHT22;76240;50.902;3.892;2024-02-16T09:26:11;14.20;89.50
85696;DHT22;76240;50.902;3.892;2024-02-16T09:28:40;14.20;89.40
85696;DHT22;76240;50.902;3.892;2024-02-16T09:31:13;14.20;89.40
85696;DHT22;76240;50.902;3.892;2024-02-16T09:33:39;14.20;89.40
85696;DHT22;76240;50.902;3.892;2024-02-16T09:36:06;14.30;89.00
85696;DHT22;76240;50.902;3.892;2024-02-16T09:38:32;14.30;89.00
85696;DHT22;76240;50.902;3.892;2024-02-16T09:40:58;14.30;90.00
85696;DHT22;76240;50.902;3.892;2024-02-16T09:43:26;14.30;90.30
85696;DHT22;76240;50.902;3.892;2024-02-16T09:45:58;14.20;90.90
85696;DHT22;76240;50.902;3.892;2024-02-16T09:48:28;14.20;91.30
85696;DHT22;76240;50.902;3.892;2024-02-16T09:50:55;14.10;91.30
85696;DHT22;76240;50.902;3.892;2024-02-16T09:53:24;14.10;91.50
85696;DHT22;76240;50.902;3.892;2024-02-16T09:55:50;14.00;91.60
85696;DHT22;76240;50.902;3.892;2024-02-16T09:58:17;13.90;91.90
85696;DHT22;76240;50.902;3.892;2024-02-16T10:00:54;13.90;92.00
85696;DHT22;76240;50.902;3.892;2024-02-16T10:03:28;13.80;92.30
85696;DHT22;76240;50.902;3.892;2024-02-16T10:06:08;13.90;92.40
85696;DHT22;76240;50.902;3.892;2024-02-16T10:08:34;14.00;92.10
85696;DHT22;76240;50.902;3.892;2024-02-16T10:11:04;13.90;92.50
85696;DHT22;76240;50.902;3.892;2024-02-16T10:13:33;13.80;92.50
85696;DHT22;76240;50.902;3.892;2024-02-16T10:16:10;13.80;92.70
85696;DHT22;76240;50.902;3.892;2024-02-16T10:18:37;13.90;92.50
85696;DHT22;76240;50.902;3.892;2024-02-16T10:21:04;13.90;92.80
85696;DHT22;76240;50.902;3.892;2024-02-16T10:23:30;13.80;92.60
85696;DHT22;76240;50.902;3.892;2024-02-16T10:25:58;13.70;92.80
85696;DHT22;76240;50.902;3.892;2024-02-16T10:28:28;13.80;92.90
85696;DHT22;76240;50.902;3.892;2024-02-16T10:30:59;13.70;93.10
85696;DHT22;76240;50.902;3.892;2024-02-16T10:33:28;13.60;93.40
85696;DHT22;76240;50.902;3.892;2024-02-16T10:35:58;13.50;93.60
85696;DHT22;76240;50.902;3.892;2024-02-16T10:38:25;13.50;93.70
85696;DHT22;76240;50.902;3.892;2024-02-16T10:40:53;13.50;93.90
85696;DHT22;76240;50.902;3.892;2024-02-16T10:43:22;13.50;94.00
85696;DHT22;76240;50.902;3.892;2024-02-16T10:45:49;13.50;94.00
85696;DHT22;76240;50.902;3.892;2024-02-16T10:48:18;13.40;94.10
85696;DHT22;76240;50.902;3.892;2024-02-16T10:50:44;13.50;94.10
85696;DHT22;76240;50.902;3.892;2024-02-16T10:53:23;13.50;94.10
85696;DHT22;76240;50.902;3.892;2024-02-16T10:55:50;13.40;94.10
85696;DHT22;76240;50.902;3.892;2024-02-16T10:58:17;13.40;94.40
85696;DHT22;76240;50.902;3.892;2024-02-16T11:00:54;13.40;94.30
85696;DHT22;76240;50.902;3.892;2024-02-16T11:03:25;13.50;94.10
85696;DHT22;76240;50.902;3.892;2024-02-16T11:05:52;13.50;94.10
85696;DHT22;76240;50.902;3.892;2024-02-16T11:08:22;13.50;94.30
85696;DHT22;76240;50.902;3.892;2024-02-16T11:11:02;13.50;94.50
85696;DHT22;76240;50.902;3.892;2024-02-16T11:13:34;13.60;94.10
85696;DHT22;76240;50.902;3.892;2024-02-16T11:16:07;13.70;93.80
85696;DHT22;76240;50.902;3.892;2024-02-16T11:18:38;13.70;93.60
85696;DHT22;76240;50.902;3.892;2024-02-16T11:21:05;13.80;93.50
85696;DHT22;76240;50.902;3.892;2024-02-16T11:23:35;13.80;93.30
85696;DHT22;76240;50.902;3.892;2024-02-16T11:26:06;13.80;93.30
85696;DHT22;76240;50.902;3.892;2024-02-16T11:28:37;13.90;92.80
85696;DHT22;76240;50.902;3.892;2024-02-16T11:31:03;13.80;93.00
85696;DHT22;76240;50.902;3.892;2024-02-16T11:33:30;13.80;93.30
85696;DHT22;76240;50.902;3.892;2024-02-16T11:36:04;13.90;93.30
85696;DHT22;76240;50.902;3.892;2024-02-16T11:38:33;13.90;93.30
85696;DHT22;76240;50.902;3.892;2024-02-16T11:41:03;14.00;93.10
85696;DHT22;76240;50.902;3.892;2024-02-16T11:43:30;14.00;92.90
85696;DHT22;76240;50.902;3.892;2024-02-16T11:45:56;13.90;92.70
85696;DHT22;76240;50.902;3.892;2024-02-16T11:48:26;13.90;92.80
85696;DHT22;76240;50.902;3.892;2024-02-16T11:51:02;13.90;92.60
85696;DHT22;76240;50.902;3.892;2024-02-16T11:53:29;13.70;93.20
85696;DHT22;76240;50.902;3.892;2024-02-16T11:55:55;13.70;93.20
85696;DHT22;76240;50.902;3.892;2024-02-16T11:58:22;13.80;92.90
85696;DHT22;76240;50.902;3.892;2024-02-16T12:00:49;13.60;92.70
85696;DHT22;76240;50.902;3.892;2024-02-16T12:03:24;13.50;93.00
85696;DHT22;76240;50.902;3.892;2024-02-16T12:05:56;13.60;93.00
85696;DHT22;76240;50.902;3.892;2024-02-16T12:08:22;13.60;92.80
85696;DHT22;76240;50.902;3.892;2024-02-16T12:10:49;13.60;93.10
85696;DHT22;76240;50.902;3.892;2024-02-16T12:13:19;13.60;93.70
85696;DHT22;76240;50.902;3.892;2024-02-16T12:15:49;13.60;93.10
85696;DHT22;76240;50.902;3.892;2024-02-16T12:18:26;13.60;93.20
85696;DHT22;76240;50.902;3.892;2024-02-16T12:21:02;13.60;93.10
85696;DHT22;76240;50.902;3.892;2024-02-16T12:23:29;13.80;93.40
85696;DHT22;76240;50.902;3.892;2024-02-16T12:26:00;13.90;92.80
85696;DHT22;76240;50.902;3.892;2024-02-16T12:28:28;14.20;92.70
85696;DHT22;76240;50.902;3.892;2024-02-16T12:30:58;14.40;92.60
85696;DHT22;76240;50.902;3.892;2024-02-16T12:33:24;14.60;92.30
85696;DHT22;76240;50.902;3.892;2024-02-16T12:35:51;14.70;91.60
85696;DHT22;76240;50.902;3.892;2024-02-16T12:38:17;14.80;91.10
85696;DHT22;76240;50.902;3.892;2024-02-16T12:40:45;14.90;91.00
85696;DHT22;76240;50.902;3.892;2024-02-16T12:43:12;14.90;90.40
85696;DHT22;76240;50.902;3.892;2024-02-16T12:45:39;14.90;90.60
85696;DHT22;76240;50.902;3.892;2024-02-16T12:48:06;15.00;90.70
85696;DHT22;76240;50.902;3.892;2024-02-16T12:50:32;15.00;90.60
85696;DHT22;76240;50.902;3.892;2024-02-16T12:52:58;15.00;90.40
85696;DHT22;76240;50.902;3.892;2024-02-16T12:55:25;15.00;90.40
85696;DHT22;76240;50.902;3.892;2024-02-16T12:57:51;14.90;90.60
85696;DHT22;76240;50.902;3.892;2024-02-16T13:00:18;14.90;90.20
85696;DHT22;76240;50.902;3.892;2024-02-16T13:02:44;14.90;90.20
85696;DHT22;76240;50.902;3.892;2024-02-16T13:05:10;14.90;90.30
85696;DHT22;76240;50.902;3.892;2024-02-16T13:07:37;15.10;90.40
85696;DHT22;76240;50.902;3.892;2024-02-16T13:10:05;15.10;89.70
85696;DHT22;76240;50.902;3.892;2024-02-16T13:12:32;15.20;90.00
85696;DHT22;76240;50.902;3.892;2024-02-16T13:14:58;15.20;88.60
85696;DHT22;76240;50.902;3.892;2024-02-16T13:17:24;15.10;89.20
85696;DHT22;76240;50.902;3.892;2024-02-16T13:19:52;15.20;88.70
85696;DHT22;76240;50.902;3.892;2024-02-16T13:22:18;15.20;89.20
85696;DHT22;76240;50.902;3.892;2024-02-16T13:24:44;15.40;88.40
85696;DHT22;76240;50.902;3.892;2024-02-16T13:27:10;15.40;88.40
85696;DHT22;76240;50.902;3.892;2024-02-16T13:29:36;15.40;86.80
85696;DHT22;76240;50.902;3.892;2024-02-16T13:32:02;15.40;88.00
85696;DHT22;76240;50.902;3.892;2024-02-16T13:34:29;15.50;88.00
85696;DHT22;76240;50.902;3.892;2024-02-16T13:36:56;15.60;87.50
85696;DHT22;76240;50.902;3.892;2024-02-16T13:39:21;15.60;86.30
85696;DHT22;76240;50.902;3.892;2024-02-16T13:41:48;15.70;86.50
85696;DHT22;76240;50.902;3.892;2024-02-16T13:44:19;15.60;85.40
85696;DHT22;76240;50.902;3.892;2024-02-16T13:46:46;15.50;85.80
85696;DHT22;76240;50.902;3.892;2024-02-16T13:49:15;15.40;85.90
85696;DHT22;76240;50.902;3.892;2024-02-16T13:51:41;15.20;85.30
85696;DHT22;76240;50.902;3.892;2024-02-16T13:54:07;15.20;87.20
85696;DHT22;76240;50.902;3.892;2024-02-16T13:56:33;15.30;85.50
85696;DHT22;76240;50.902;3.892;2024-02-16T13:59:02;15.40;86.40
85696;DHT22;76240;50.902;3.892;2024-02-16T14:01:29;15.50;85.00
85696;DHT22;76240;50.902;3.892;2024-02-16T14:03:55;15.80;85.00
85696;DHT22;76240;50.902;3.892;2024-02-16T14:06:21;16.00;84.70
85696;DHT22;76240;50.902;3.892;2024-02-16T14:08:47;16.10;83.90
85696;DHT22;76240;50.902;3.892;2024-02-16T14:11:18;16.10;83.20
85696;DHT22;76240;50.902;3.892;2024-02-16T14:13:45;15.90;83.90
85696;DHT22;76240;50.902;3.892;2024-02-16T14:16:11;15.80;84.50
85696;DHT22;76240;50.902;3.892;2024-02-16T14:18:37;15.90;84.20
85696;DHT22;76240;50.902;3.892;2024-02-16T14:21:03;15.80;81.80
85696;DHT22;76240;50.902;3.892;2024-02-16T14:23:30;15.80;82.10
85696;DHT22;76240;50.902;3.892;2024-02-16T14:25:55;15.50;82.60
85696;DHT22;76240;50.902;3.892;2024-02-16T14:28:22;15.30;83.40
85696;DHT22;76240;50.902;3.892;2024-02-16T14:30:47;15.30;84.00
85696;DHT22;76240;50.902;3.892;2024-02-16T14:33:13;15.40;83.90
85696;DHT22;76240;50.902;3.892;2024-02-16T14:35:42;15.50;83.50
85696;DHT22;76240;50.902;3.892;2024-02-16T14:38:08;15.70;84.40
85696;DHT22;76240;50.902;3.892;2024-02-16T14:40:34;15.90;83.40
85696;DHT22;76240;50.902;3.892;2024-02-16T14:43:01;16.10;82.60
85696;DHT22;76240;50.902;3.892;2024-02-16T14:45:27;16.10;80.50
85696;DHT22;76240;50.902;3.892;2024-02-16T14:47:53;16.10;80.90
85696;DHT22;76240;50.902;3.892;2024-02-16T14:50:19;16.10;80.20
85696;DHT22;76240;50.902;3.892;2024-02-16T14:52:45;16.10;80.60
85696;DHT22;76240;50.902;3.892;2024-02-16T14:55:12;16.10;79.80
85696;DHT22;76240;50.902;3.892;2024-02-16T14:57:44;16.10;80.30
85696;DHT22;76240;50.902;3.892;2024-02-16T15:00:10;16.00;79.70
85696;DHT22;76240;50.902;3.892;2024-02-16T15:02:39;16.10;79.70
85696;DHT22;76240;50.902;3.892;2024-02-16T15:05:07;16.10;79.60
85696;DHT22;76240;50.902;3.892;2024-02-16T15:07:33;15.90;79.80
85696;DHT22;76240;50.902;3.892;2024-02-16T15:10:00;16.00;80.00
85696;DHT22;76240;50.902;3.892;2024-02-16T15:12:26;15.80;79.50
85696;DHT22;76240;50.902;3.892;2024-02-16T15:14:53;15.70;79.90
85696;DHT22;76240;50.902;3.892;2024-02-16T15:17:20;15.70;79.90
85696;DHT22;76240;50.902;3.892;2024-02-16T15:19:46;15.60;80.10
85696;DHT22;76240;50.902;3.892;2024-02-16T15:22:12;15.60;80.70
85696;DHT22;76240;50.902;3.892;2024-02-16T15:24:38;15.70;80.00
85696;DHT22;76240;50.902;3.892;2024-02-16T15:27:04;15.60;80.30
85696;DHT22;76240;50.902;3.892;2024-02-16T15:29:30;15.60;80.50